Time;durP1;ratioP1;P1;durP2;ratioP2;P2;SDS_P1;SDS_P2;PMS_P1;PMS_P2;Temp;Humidity;BMP_temperature;BMP_pressure;BME280_temperature;BME280_humidity;BME280_pressure;Samples;Min_cycle;Max_cycle;Signal;HPM_P1;HPM_P2
2022/09/01 00:01:42;;;;;;;6.05;3.58;;;;;;;18.00;84.82;98926.31;1684648;84;21059;-76
2022/09/01 00:04:14;;;;;;;6.78;3.45;;;;;;;17.96;84.77;98928.74;1691374;83;21516;-78
2022/09/01 00:06:41;;;;;;;7.12;3.65;;;;;;;17.93;84.79;98929.41;1682649;84;21590;-78
2022/09/01 00:09:12;;;;;;;5.72;3.60;;;;;;;17.88;85.34;98938.86;1696411;84;21032;-78
2022/09/01 00:11:41;;;;;;;7.28;3.62;;;;;;;17.84;85.33;98943.45;1681258;83;21548;-78
2022/09/01 00:14:10;;;;;;;5.80;3.77;;;;;;;17.81;85.21;98940.98;1666471;84;21040;-76
2022/09/01 00:16:36;;;;;;;7.00;3.87;;;;;;;17.81;85.46;98937.03;1682760;84;21580;-79
2022/09/01 00:19:05;;;;;;;14.00;3.72;;;;;;;17.84;84.99;98938.66;1682640;84;21069;-78
2022/09/01 00:21:37;;;;;;;7.40;3.70;;;;;;;17.77;85.10;98943.88;1682760;84;21013;-76
2022/09/01 00:24:06;;;;;;;7.30;3.40;;;;;;;17.76;85.41;98936.91;1682632;84;21547;-77
2022/09/01 00:26:32;;;;;;;6.67;3.42;;;;;;;17.73;85.49;98931.84;1700037;84;21014;-78
2022/09/01 00:28:59;;;;;;;10.75;4.50;;;;;;;17.74;85.45;98920.38;1685140;83;21008;-78
2022/09/01 00:31:27;;;;;;;10.13;3.50;;;;;;;17.72;85.37;98920.94;1682774;84;21056;-78
2022/09/01 00:33:54;;;;;;;5.70;3.35;;;;;;;17.72;85.45;98929.66;1702675;84;21533;-78
2022/09/01 00:36:21;;;;;;;9.03;3.72;;;;;;;17.73;85.42;98931.38;1682786;84;20985;-78
2022/09/01 00:38:49;;;;;;;11.88;3.95;;;;;;;17.74;85.36;98926.47;1682796;84;20981;-78
2022/09/01 00:41:21;;;;;;;11.20;3.52;;;;;;;17.75;85.86;98922.92;1682644;84;21558;-78
2022/09/01 00:43:52;;;;;;;9.45;3.60;;;;;;;17.74;85.32;98930.89;1682723;84;21024;-78
2022/09/01 00:46:27;;;;;;;9.20;3.65;;;;;;;17.75;85.20;98932.13;1682662;84;21083;-79
2022/09/01 00:49:30;;;;;;;7.55;3.60;;;;;;;17.74;85.43;98923.00;1681193;84;21024;-77
2022/09/01 00:52:02;;;;;;;10.25;3.90;;;;;;;17.75;85.46;98923.41;1682408;84;21064;-78
2022/09/01 00:54:33;;;;;;;10.35;3.47;;;;;;;17.78;85.61;98932.41;1682400;84;20969;-79
2022/09/01 00:57:02;;;;;;;6.83;3.67;;;;;;;17.74;85.37;98934.84;1682663;84;21529;-77
2022/09/01 00:59:30;;;;;;;14.70;4.47;;;;;;;17.78;85.69;98944.24;1682852;84;21009;-76
2022/09/01 01:01:57;;;;;;;13.43;4.87;;;;;;;17.83;85.33;98941.77;1676633;84;21012;-76
2022/09/01 01:04:24;;;;;;;8.93;3.40;;;;;;;17.84;85.50;98936.88;1669351;85;21032;-78
2022/09/01 01:07:00;;;;;;;7.70;3.52;;;;;;;17.81;85.59;98940.14;1667606;85;21053;-78
2022/09/01 01:09:33;;;;;;;10.35;3.65;;;;;;;17.82;85.62;98935.24;1668011;85;21005;-78
2022/09/01 01:12:03;;;;;;;5.42;3.40;;;;;;;17.81;85.20;98923.05;1661200;84;21045;-78
2022/09/01 01:14:31;;;;;;;8.50;3.62;;;;;;;17.83;85.43;98923.36;1655867;85;20994;-78
2022/09/01 01:16:59;;;;;;;14.20;3.98;;;;;;;17.87;85.24;98920.09;1667749;85;21069;-76
2022/09/01 01:23:01;;;;;;;5.78;3.45;;;;;;;17.86;85.26;98920.54;1667926;85;21544;-78
2022/09/01 01:25:47;;;;;;;12.10;3.83;;;;;;;17.91;85.25;98905.83;1666967;85;21569;-78
2022/09/01 01:28:25;;;;;;;8.03;4.28;;;;;;;17.96;85.24;98906.86;1650592;86;22118;-79
2022/09/01 01:30:58;;;;;;;9.13;4.33;;;;;;;17.96;85.07;98904.23;1667933;85;21024;-77
2022/09/01 01:33:30;;;;;;;7.72;4.80;;;;;;;17.87;84.76;98914.36;1650970;86;21555;-79
2022/09/01 01:35:58;;;;;;;10.08;4.40;;;;;;;17.76;85.15;98915.41;1667995;85;21318;-79
2022/09/01 01:38:29;;;;;;;8.90;4.45;;;;;;;17.73;85.11;98913.44;1650579;86;20997;-78
2022/09/01 01:40:56;;;;;;;9.88;4.42;;;;;;;17.71;85.38;98906.95;1667742;85;21021;-78
2022/09/01 01:43:26;;;;;;;9.53;4.45;;;;;;;17.71;85.86;98914.84;1668039;85;20985;-79
2022/09/01 01:45:57;;;;;;;13.60;4.53;;;;;;;17.67;85.47;98916.79;1667763;85;21028;-78
2022/09/01 01:48:27;;;;;;;9.65;3.92;;;;;;;17.65;85.47;98913.40;1668021;85;21017;-79
2022/09/01 01:50:57;;;;;;;11.15;4.15;;;;;;;17.62;85.79;98920.13;1667855;85;21049;-78
2022/09/01 01:53:24;;;;;;;12.75;4.17;;;;;;;17.58;85.70;98917.77;1667747;85;21053;-79
2022/09/01 01:55:52;;;;;;;9.38;4.50;;;;;;;17.54;85.50;98913.63;1667666;85;21080;-78
2022/09/01 01:58:23;;;;;;;7.30;4.22;;;;;;;17.51;85.78;98914.66;1667909;85;21033;-76
2022/09/01 02:00:53;;;;;;;9.35;4.20;;;;;;;17.50;84.92;98912.95;1667792;85;21065;-78
2022/09/01 02:03:24;;;;;;;8.48;4.33;;;;;;;17.47;85.71;98903.47;1667594;85;21033;-76
2022/09/01 02:05:54;;;;;;;6.87;3.95;;;;;;;17.51;85.91;98904.14;1681670;84;21623;-78
2022/09/01 02:08:24;;;;;;;9.03;3.90;;;;;;;17.51;85.79;98897.58;1673172;84;21049;-79
2022/09/01 02:10:54;;;;;;;9.85;3.98;;;;;;;17.50;85.93;98905.90;1673142;84;21076;-79
2022/09/01 02:13:29;;;;;;;12.82;4.42;;;;;;;17.52;85.90;98903.67;1656390;84;21081;-77
2022/09/01 02:15:55;;;;;;;6.67;4.33;;;;;;;17.54;85.96;98907.89;1696786;83;21622;-76
2022/09/01 02:18:27;;;;;;;8.75;4.10;;;;;;;17.54;85.93;98906.58;1681431;83;21465;-77
2022/09/01 02:20:57;;;;;;;11.80;3.92;;;;;;;17.52;86.17;98909.77;1689905;83;21073;-77
2022/09/01 02:23:25;;;;;;;10.30;4.08;;;;;;;17.54;86.17;98901.33;1688630;84;21068;-77
2022/09/01 02:25:59;;;;;;;7.42;4.15;;;;;;;17.51;86.11;98901.52;1673122;84;21084;-77
2022/09/01 02:28:26;;;;;;;10.30;4.20;;;;;;;17.51;86.40;98896.27;1673139;84;21008;-77
2022/09/01 02:31:02;;;;;;;8.40;4.35;;;;;;;17.51;86.16;98898.89;1681347;84;21069;-77
2022/09/01 02:33:31;;;;;;;6.87;4.30;;;;;;;17.53;86.04;98902.27;1674467;85;21016;-76
2022/09/01 02:36:03;;;;;;;5.17;3.27;;;;;;;17.57;86.46;98900.33;1673072;84;21016;-77
2022/09/01 02:38:32;;;;;;;8.48;4.00;;;;;;;17.63;86.17;98906.55;1673144;84;21009;-77
2022/09/01 02:41:02;;;;;;;13.50;4.17;;;;;;;17.66;86.44;98890.11;1673000;84;21009;-77
2022/09/01 02:43:30;;;;;;;6.80;3.85;;;;;;;17.72;86.36;98893.33;1673367;84;21013;-77
2022/09/01 02:45:59;;;;;;;8.40;4.35;;;;;;;17.77;86.14;98892.61;1673039;84;21032;-77
2022/09/01 02:48:36;;;;;;;5.90;3.52;;;;;;;17.82;85.69;98891.86;1673129;84;21020;-77
2022/09/01 02:51:08;;;;;;;6.87;3.40;;;;;;;17.79;85.70;98885.48;1672245;84;21017;-78
2022/09/01 02:53:35;;;;;;;6.90;3.92;;;;;;;17.80;85.71;98881.42;1670224;84;21001;-78
2022/09/01 02:56:08;;;;;;;9.45;4.62;;;;;;;17.76;85.65;98894.37;1672978;84;21056;-77
2022/09/01 02:58:44;;;;;;;8.08;4.15;;;;;;;17.77;85.88;98891.30;1673350;84;21553;-78
2022/09/01 03:01:04;;;;;;;14.83;4.50;;;;;;;17.76;85.69;98900.10;1673907;84;21080;-78
2022/09/01 03:03:31;;;;;;;11.65;4.53;;;;;;;17.71;85.87;98899.06;1678021;84;21088;-77
2022/09/01 03:06:00;;;;;;;9.03;4.28;;;;;;;17.65;86.37;98895.00;1682647;84;21103;-78
2022/09/01 03:08:26;;;;;;;10.35;4.67;;;;;;;17.62;85.22;98888.59;1682664;84;21580;-78
2022/09/01 03:11:00;;;;;;;11.28;4.90;;;;;;;17.58;85.10;98891.49;1681609;84;21008;-77
2022/09/01 03:13:24;;;;;;;11.15;4.47;;;;;;;17.48;85.95;98885.91;1685850;83;21083;-78
2022/09/01 03:15:50;;;;;;;9.23;4.25;;;;;;;17.45;86.22;98889.56;1702805;83;21571;-77
2022/09/01 03:18:18;;;;;;;11.70;4.45;;;;;;;17.45;86.33;98895.30;1749262;81;20998;-75
2022/09/01 03:20:46;;;;;;;10.48;4.80;;;;;;;17.46;86.65;98895.19;1748175;82;21095;-75
2022/09/01 03:23:17;;;;;;;9.10;4.42;;;;;;;17.48;86.33;98895.10;1727722;82;21008;-74
2022/09/01 03:25:46;;;;;;;11.93;4.42;;;;;;;17.52;86.31;98901.05;1736071;82;20977;-77
2022/09/01 03:28:15;;;;;;;13.90;5.15;;;;;;;17.50;86.45;98896.70;1739819;82;21522;-77
2022/09/01 03:30:49;;;;;;;17.23;4.75;;;;;;;17.54;86.72;98903.95;1748569;82;21537;-75
2022/09/01 03:33:18;;;;;;;8.70;4.50;;;;;;;17.58;86.58;98902.84;1727834;82;21032;-74
2022/09/01 03:35:46;;;;;;;8.95;4.50;;;;;;;17.63;86.64;98894.72;1749022;81;21043;-77
2022/09/01 03:38:19;;;;;;;7.70;3.98;;;;;;;17.66;86.31;98891.89;1743255;82;20943;-77
2022/09/01 03:40:44;;;;;;;9.15;5.10;;;;;;;17.67;86.35;98890.50;1731771;82;21035;-76
2022/09/01 03:43:12;;;;;;;9.25;4.83;;;;;;;17.69;86.56;98879.91;1727838;82;21047;-77
2022/09/01 03:45:40;;;;;;;9.98;4.67;;;;;;;17.69;86.78;98886.00;1725634;82;21059;-77
2022/09/01 03:48:08;;;;;;;8.90;4.97;;;;;;;17.73;86.96;98884.52;1710162;82;20987;-77
2022/09/01 03:50:44;;;;;;;9.55;5.00;;;;;;;17.76;86.81;98883.02;1727750;82;21023;-77
2022/09/01 03:53:08;;;;;;;10.80;5.30;;;;;;;17.80;87.20;98881.42;1708927;82;20992;-77
2022/09/01 03:55:37;;;;;;;8.25;5.35;;;;;;;17.86;86.72;98881.57;1747868;82;20977;-77
2022/09/01 03:58:08;;;;;;;8.55;5.25;;;;;;;17.85;86.83;98878.10;1728155;82;21020;-77
2022/09/01 04:00:40;;;;;;;14.60;6.00;;;;;;;17.81;87.63;98880.98;1728023;82;21027;-79
2022/09/01 04:03:12;;;;;;;11.55;5.60;;;;;;;17.80;87.24;98884.05;1727245;82;21004;-77
2022/09/01 04:05:44;;;;;;;11.35;5.87;;;;;;;17.85;87.07;98890.41;1724297;82;20981;-77
2022/09/01 04:08:12;;;;;;;15.40;6.58;;;;;;;17.87;87.20;98879.33;1718123;82;21011;-77
2022/09/01 04:10:50;;;;;;;9.95;5.47;;;;;;;17.92;87.66;98885.63;1718117;82;21008;-76
2022/09/01 04:13:22;;;;;;;13.03;5.97;;;;;;;17.96;87.38;98883.20;1696889;82;21555;-75
2022/09/01 04:15:49;;;;;;;15.40;5.62;;;;;;;17.96;87.38;98879.25;1718471;82;21531;-77
2022/09/01 04:18:20;;;;;;;15.50;6.60;;;;;;;17.94;87.60;98882.44;1720194;82;20975;-77
2022/09/01 04:20:58;;;;;;;16.17;6.55;;;;;;;17.92;87.51;98878.58;1723922;82;21005;-76
2022/09/01 04:23:33;;;;;;;14.65;5.65;;;;;;;17.98;87.65;98885.27;1719501;81;20981;-78
2022/09/01 04:26:13;;;;;;;16.23;5.17;;;;;;;18.02;87.55;98886.30;1717963;82;21488;-77
2022/09/01 04:28:44;;;;;;;10.48;5.60;;;;;;;18.06;87.61;98890.47;1717819;82;20992;-75
2022/09/01 04:31:18;;;;;;;13.53;6.05;;;;;;;18.11;87.45;98888.03;1689546;83;21577;-77
2022/09/01 04:33:48;;;;;;;14.30;6.53;;;;;;;18.11;87.26;98886.72;1727848;82;21026;-78
2022/09/01 04:36:24;;;;;;;14.45;6.12;;;;;;;18.16;87.29;98886.80;1719886;82;21508;-74
2022/09/01 04:38:57;;;;;;;14.70;6.40;;;;;;;18.20;87.46;98886.16;1717857;82;21473;-77
2022/09/01 04:41:30;;;;;;;12.88;6.08;;;;;;;18.26;87.35;98885.78;1714887;82;21107;-77
2022/09/01 04:44:05;;;;;;;11.43;5.55;;;;;;;18.29;87.57;98889.56;1705662;82;21524;-75
2022/09/01 04:46:41;;;;;;;11.08;6.10;;;;;;;18.35;87.36;98891.81;1700914;82;21551;-77
2022/09/01 04:49:09;;;;;;;12.33;6.58;;;;;;;18.38;87.37;98885.06;1717726;82;21047;-76
2022/09/01 04:51:40;;;;;;;11.03;5.97;;;;;;;18.40;87.10;98881.88;1717368;82;21583;-76
2022/09/01 04:54:13;;;;;;;12.78;6.15;;;;;;;18.43;87.15;98885.62;1708903;81;20996;-77
2022/09/01 04:56:38;;;;;;;15.00;6.15;;;;;;;18.47;86.97;98877.07;1714731;82;20976;-76
2022/09/01 04:59:13;;;;;;;16.10;5.40;;;;;;;18.51;86.77;98883.84;1722508;82;21444;-77
2022/09/01 05:01:45;;;;;;;12.13;5.53;;;;;;;18.55;86.56;98879.23;1713988;82;21077;-77
2022/09/01 05:04:18;;;;;;;20.90;5.97;;;;;;;18.59;86.50;98878.11;1715788;82;21004;-77
2022/09/01 05:06:49;;;;;;;15.53;5.85;;;;;;;18.63;86.70;98883.08;1670689;84;21055;-77
2022/09/01 05:09:20;;;;;;;18.65;6.00;;;;;;;18.73;86.32;98879.41;1711040;82;21024;-76
2022/09/01 05:11:48;;;;;;;14.25;6.45;;;;;;;18.78;86.28;98874.72;1710665;82;21063;-77
2022/09/01 05:14:19;;;;;;;19.30;7.33;;;;;;;18.86;85.96;98877.75;1710327;82;21020;-77
2022/09/01 05:16:47;;;;;;;11.25;6.10;;;;;;;18.91;85.86;98884.03;1683904;83;20983;-77
2022/09/01 05:19:14;;;;;;;14.10;6.80;;;;;;;18.96;85.64;98879.78;1726235;81;21083;-77
2022/09/01 05:21:44;;;;;;;16.57;7.30;;;;;;;19.02;85.29;98881.58;1694798;83;21055;-77
2022/09/01 05:24:16;;;;;;;12.40;6.42;;;;;;;19.07;85.16;98882.59;1715153;81;21076;-76
2022/09/01 05:26:46;;;;;;;12.23;6.87;;;;;;;19.11;85.15;98884.58;1716100;82;20996;-77
2022/09/01 05:29:16;;;;;;;17.67;7.25;;;;;;;19.13;84.72;98882.20;1676194;84;21064;-76
2022/09/01 05:31:48;;;;;;;17.75;6.65;;;;;;;19.15;85.00;98884.27;1690953;83;21030;-77
2022/09/01 05:34:20;;;;;;;12.85;6.25;;;;;;;19.23;84.80;98889.05;1726096;81;20999;-76
2022/09/01 05:36:49;;;;;;;21.20;6.65;;;;;;;19.24;84.25;98882.38;1685757;83;21012;-76
2022/09/01 05:39:15;;;;;;;13.95;6.00;;;;;;;19.30;84.34;98888.17;1721713;81;21056;-76
2022/09/01 05:41:44;;;;;;;13.95;6.00;;;;;;;19.33;84.37;98879.61;1695182;83;21082;-77
2022/09/01 05:44:12;;;;;;;12.53;6.55;;;;;;;19.36;84.49;98878.11;1690952;83;21070;-77
2022/09/01 05:46:42;;;;;;;12.13;5.65;;;;;;;19.46;84.60;98868.65;1709772;82;20996;-76
2022/09/01 05:49:17;;;;;;;14.35;6.70;;;;;;;19.49;84.23;98875.50;1723326;82;21074;-76
2022/09/01 05:51:50;;;;;;;11.48;6.08;;;;;;;19.57;84.20;98871.89;1715431;82;21024;-77
2022/09/01 05:54:24;;;;;;;10.15;5.60;;;;;;;19.64;83.86;98871.87;1725456;81;21035;-77
2022/09/01 05:56:52;;;;;;;11.22;5.92;;;;;;;19.71;83.79;98868.82;1715018;82;21492;-76
2022/09/01 05:59:22;;;;;;;11.78;5.72;;;;;;;19.79;83.81;98870.02;1713447;82;20987;-77
2022/09/01 06:01:51;;;;;;;10.68;6.05;;;;;;;19.92;83.69;98871.39;1675062;84;21645;-77
2022/09/01 06:04:19;;;;;;;9.83;5.53;;;;;;;20.04;83.44;98880.27;1722778;81;21488;-78
2022/09/01 06:06:48;;;;;;;12.80;6.50;;;;;;;20.19;83.03;98882.33;1674204;84;21052;-77
2022/09/01 06:09:17;;;;;;;10.45;5.95;;;;;;;20.29;82.22;98879.42;1675004;83;21007;-76
2022/09/01 06:11:46;;;;;;;10.08;6.72;;;;;;;20.37;81.98;98877.59;1685992;83;21035;-77
2022/09/01 06:14:14;;;;;;;12.63;6.40;;;;;;;20.42;81.50;98871.52;1725728;82;21464;-77
2022/09/01 06:16:43;;;;;;;13.60;6.72;;;;;;;20.43;80.83;98874.52;1691619;83;21079;-76
2022/09/01 06:19:11;;;;;;;13.88;6.62;;;;;;;20.51;80.93;98874.83;1722822;82;21060;-78
2022/09/01 06:21:40;;;;;;;15.40;6.83;;;;;;;20.57;80.73;98880.16;1659830;84;21615;-76
2022/09/01 06:24:07;;;;;;;15.48;6.80;;;;;;;20.61;80.36;98876.38;1710075;82;21180;-77
2022/09/01 06:26:37;;;;;;;11.33;6.87;;;;;;;20.63;80.28;98875.34;1678545;83;21028;-76
2022/09/01 06:29:09;;;;;;;14.07;6.62;;;;;;;20.70;80.08;98869.63;1713316;82;20989;-77
2022/09/01 06:31:38;;;;;;;;;;;;;;;20.73;79.47;98878.19;1670504;84;21024;-77
2022/09/01 06:34:16;;;;;;;13.55;7.08;;;;;;;20.67;79.27;98866.70;1715812;82;21086;-77
2022/09/01 06:36:42;;;;;;;17.10;6.78;;;;;;;20.67;79.75;98870.67;1707572;82;21025;-76
2022/09/01 06:39:16;;;;;;;12.35;6.85;;;;;;;20.65;79.75;98876.09;1673972;84;21524;-78
2022/09/01 06:41:38;;;;;;;12.45;6.70;;;;;;;20.69;79.94;98878.05;1712811;82;21076;-78
2022/09/01 06:44:07;;;;;;;18.05;6.85;;;;;;;20.76;79.98;98885.88;1714350;82;21068;-77
2022/09/01 06:46:34;;;;;;;11.48;6.03;;;;;;;20.82;79.64;98885.45;1669878;84;22227;-78
2022/09/01 06:49:02;;;;;;;11.48;7.00;;;;;;;20.77;79.05;98883.63;1707298;82;21036;-78
2022/09/01 06:51:30;;;;;;;12.28;6.55;;;;;;;20.72;79.12;98885.73;1706803;82;20997;-78
2022/09/01 06:53:58;;;;;;;10.35;6.25;;;;;;;20.81;78.98;98885.09;1686816;83;21024;-78
2022/09/01 06:56:30;;;;;;;17.15;6.65;;;;;;;20.84;78.63;98876.94;1685664;83;21007;-78
2022/09/01 06:58:57;;;;;;;11.65;6.03;;;;;;;20.83;78.35;98886.28;1710953;82;21527;-77
2022/09/01 07:01:26;;;;;;;18.37;6.58;;;;;;;20.91;78.06;98887.94;1687290;83;21023;-78
2022/09/01 07:03:57;;;;;;;12.70;6.17;;;;;;;20.86;78.29;98878.99;1722682;82;21024;-78
2022/09/01 07:06:26;;;;;;;12.60;6.72;;;;;;;20.95;78.27;98876.19;1695527;82;21126;-78
2022/09/01 07:08:58;;;;;;;11.75;7.20;;;;;;;21.02;78.05;98878.74;1708828;82;21092;-78
2022/09/01 07:11:31;;;;;;;12.50;6.22;;;;;;;21.04;77.57;98883.92;1715604;82;21008;-78
2022/09/01 07:14:03;;;;;;;14.98;6.47;;;;;;;21.00;77.69;98880.65;1715613;82;21060;-76
2022/09/01 07:16:39;;;;;;;12.55;6.10;;;;;;;21.07;77.89;98883.72;1659657;84;21079;-75
2022/09/01 07:19:05;;;;;;;;;;;;;;;21.10;77.95;98882.64;1709006;82;21033;-78
2022/09/01 07:21:33;;;;;;;12.98;6.55;;;;;;;21.14;78.06;98874.38;1708937;82;20929;-78
2022/09/01 07:24:03;;;;;;;13.80;5.75;;;;;;;21.21;78.07;98881.41;1711704;82;21025;-77
2022/09/01 07:26:28;;;;;;;8.98;5.28;;;;;;;21.34;78.07;98886.63;1714068;82;21048;-78
2022/09/01 07:28:57;;;;;;;14.85;5.80;;;;;;;21.47;78.03;98891.89;1714485;82;21091;-77
2022/09/01 07:31:28;;;;;;;10.00;5.22;;;;;;;21.60;78.06;98882.94;1718359;82;21025;-78
2022/09/01 07:33:59;;;;;;;10.48;5.12;;;;;;;21.72;77.78;98879.86;1677558;83;21086;-79
2022/09/01 07:36:26;;;;;;;11.75;5.58;;;;;;;21.86;77.20;98877.51;1690047;83;21022;-77
2022/09/01 07:38:53;;;;;;;12.95;5.75;;;;;;;21.93;77.43;98872.13;1654982;83;21023;-78
2022/09/01 07:41:23;;;;;;;11.43;5.80;;;;;;;22.09;76.79;98876.27;1724409;82;20972;-78
2022/09/01 07:43:51;;;;;;;9.43;5.47;;;;;;;22.20;76.07;98879.78;1719402;82;21004;-78
2022/09/01 07:46:35;;;;;;;8.08;5.37;;;;;;;22.31;75.69;98875.50;1753663;80;21059;-77
2022/09/01 07:49:03;;;;;;;9.95;4.80;;;;;;;22.40;74.65;98868.14;1725478;80;21154;-77
2022/09/01 07:51:33;;;;;;;11.25;5.47;;;;;;;22.47;74.28;98864.56;1677455;84;21008;-77
2022/09/01 07:54:01;;;;;;;10.10;5.17;;;;;;;22.60;74.16;98859.97;1711917;82;20978;-78
2022/09/01 07:56:29;;;;;;;8.53;5.45;;;;;;;22.65;73.06;98855.16;1681435;83;21499;-78
2022/09/01 07:58:57;;;;;;;14.45;5.97;;;;;;;22.70;71.48;98862.28;1721984;81;21476;-78
2022/09/01 08:01:27;;;;;;;8.90;5.33;;;;;;;22.77;72.63;98863.45;1672664;84;21224;-77
2022/09/01 08:04:17;;;;;;;8.35;4.92;;;;;;;22.80;71.46;98855.73;1705964;82;21016;-78
2022/09/01 08:06:44;;;;;;;9.10;4.72;;;;;;;22.87;70.85;98858.77;1698908;83;21031;-79
2022/09/01 08:09:12;;;;;;;14.38;5.72;;;;;;;22.81;71.82;98858.27;1697717;83;21004;-78
2022/09/01 08:11:40;;;;;;;10.95;6.58;;;;;;;22.93;72.31;98852.97;1700581;83;21051;-80
2022/09/01 08:14:07;;;;;;;10.60;6.00;;;;;;;23.07;72.50;98852.73;1707508;83;21105;-79
2022/09/01 08:16:34;;;;;;;8.25;4.70;;;;;;;23.12;71.90;98850.56;1704948;83;20998;-78
2022/09/01 08:19:02;;;;;;;8.40;4.53;;;;;;;23.24;71.96;98855.36;1696117;83;21336;-79
2022/09/01 08:21:47;;;;;;;9.05;4.90;;;;;;;23.29;71.24;98861.60;1698998;83;21013;-79
2022/09/01 08:24:22;;;;;;;9.70;5.40;;;;;;;23.25;68.92;98854.86;1700478;83;21032;-79
2022/09/01 08:26:49;;;;;;;10.80;5.37;;;;;;;23.23;69.16;98854.48;1712743;83;21027;-79
2022/09/01 08:29:16;;;;;;;9.35;5.75;;;;;;;23.30;69.63;98850.01;1699009;83;20963;-78
2022/09/01 08:31:46;;;;;;;20.92;12.85;;;;;;;23.36;69.62;98845.55;1699507;83;21092;-79
2022/09/01 08:34:13;;;;;;;12.15;5.58;;;;;;;23.42;69.45;98838.42;1703587;83;21024;-80
2022/09/01 08:36:40;;;;;;;9.68;6.08;;;;;;;23.51;68.84;98841.62;1708334;83;21007;-78
2022/09/01 08:39:06;;;;;;;11.35;5.53;;;;;;;23.51;68.93;98836.80;1687591;83;20997;-78
2022/09/01 08:41:44;;;;;;;11.97;4.97;;;;;;;23.53;67.58;98841.00;1704732;83;21043;-78
2022/09/01 08:44:51;;;;;;;9.73;5.22;;;;;;;23.48;67.48;98834.42;1701874;83;20976;-79
2022/09/01 08:47:19;;;;;;;11.88;5.50;;;;;;;23.38;66.60;98844.95;1702093;83;21077;-78
2022/09/01 08:49:49;;;;;;;8.93;4.83;;;;;;;23.34;67.68;98851.47;1706680;83;21114;-79
2022/09/01 08:52:35;;;;;;;11.18;5.05;;;;;;;23.30;67.52;98845.57;1699512;83;21012;-80
2022/09/01 08:55:28;;;;;;;10.48;5.15;;;;;;;23.35;67.96;98836.73;1689390;83;21047;-79
2022/09/01 08:57:56;;;;;;;9.90;4.58;;;;;;;23.39;67.96;98838.66;1707849;83;21042;-80
2022/09/01 09:00:27;;;;;;;7.53;5.40;;;;;;;23.43;67.87;98837.43;1706887;83;21832;-78
2022/09/01 09:03:16;;;;;;;;;;;;;;;23.51;67.21;98843.44;1707328;83;21046;-78
2022/09/01 09:05:57;;;;;;;8.78;5.00;;;;;;;23.56;67.01;98836.78;1712163;81;20270;-79
2022/09/01 09:08:50;;;;;;;10.08;5.47;;;;;;;23.66;67.41;98834.70;1620102;85;21592;-80
2022/09/01 09:11:57;;;;;;;8.73;4.87;;;;;;;23.76;67.37;98836.45;1651120;85;21017;-79
2022/09/01 09:14:46;;;;;;;8.85;5.22;;;;;;;23.94;67.13;98838.07;1652551;85;21040;-80
2022/09/01 09:17:17;;;;;;;9.35;5.10;;;;;;;24.09;66.12;98831.09;1638348;85;21029;-80
2022/09/01 09:19:45;;;;;;;7.40;4.80;;;;;;;24.23;66.10;98822.78;1643936;85;21061;-78
2022/09/01 09:22:16;;;;;;;10.60;5.17;;;;;;;24.32;65.29;98826.48;1643212;85;21584;-80
2022/09/01 09:24:57;;;;;;;8.95;4.85;;;;;;;24.51;65.27;98819.95;1651745;85;21082;-80
2022/09/01 09:27:34;;;;;;;10.70;5.10;;;;;;;24.70;63.96;98813.86;1644681;85;21041;-79
2022/09/01 09:30:11;;;;;;;11.25;5.05;;;;;;;24.96;64.85;98816.02;1650347;85;21501;-79
2022/09/01 09:33:03;;;;;;;10.98;4.70;;;;;;;25.13;63.98;98818.02;1644099;85;21044;-80
2022/09/01 09:35:40;;;;;;;7.90;4.47;;;;;;;25.23;62.29;98825.19;1641280;85;21044;-80
2022/09/01 09:38:27;;;;;;;10.90;4.78;;;;;;;25.21;61.95;98819.99;1643706;85;21608;-78
2022/09/01 09:41:18;;;;;;;10.13;4.72;;;;;;;25.22;61.67;98826.17;1651607;85;21085;-80
2022/09/01 09:44:05;;;;;;;7.03;4.35;;;;;;;25.16;60.74;98819.05;1677378;84;21557;-78
2022/09/01 09:46:42;;;;;;;8.00;4.95;;;;;;;25.22;61.26;98821.69;1644846;85;21127;-78
2022/09/01 09:49:23;;;;;;;8.85;4.80;;;;;;;25.28;61.36;98818.47;1641268;85;21060;-78
2022/09/01 09:51:54;;;;;;;8.58;5.00;;;;;;;25.33;60.78;98823.40;1643006;85;21097;-78
2022/09/01 09:54:31;;;;;;;8.70;4.87;;;;;;;25.35;60.84;98820.94;1649062;85;21030;-78
2022/09/01 09:57:16;;;;;;;8.05;4.70;;;;;;;25.35;60.20;98820.11;1646205;85;21053;-79
2022/09/01 09:59:54;;;;;;;8.55;4.28;;;;;;;25.27;60.73;98819.47;1647174;85;21061;-78
2022/09/01 10:02:40;;;;;;;8.40;5.15;;;;;;;25.19;60.54;98818.80;1641701;85;21071;-78
2022/09/01 10:05:47;;;;;;;9.08;5.12;;;;;;;25.25;61.12;98816.57;1646015;85;21869;-79
2022/09/01 10:08:36;;;;;;;9.90;4.70;;;;;;;25.16;59.86;98817.72;1623330;87;21091;-78
2022/09/01 10:11:00;;;;;;;8.30;4.53;;;;;;;25.08;60.72;98814.09;1619506;86;21430;-77
2022/09/01 10:13:29;;;;;;;9.53;4.62;;;;;;;25.10;60.89;98805.48;1647896;86;21116;-77
2022/09/01 10:16:00;;;;;;;9.88;4.47;;;;;;;25.10;61.10;98816.95;1657376;85;21353;-78
2022/09/01 10:18:38;;;;;;;10.80;4.67;;;;;;;25.18;61.54;98805.13;1649406;85;21031;-77
2022/09/01 10:21:18;;;;;;;8.68;5.35;;;;;;;25.26;61.31;98803.64;1651077;85;21076;-78
2022/09/01 10:23:45;;;;;;;7.28;4.60;;;;;;;25.27;61.06;98799.98;1656375;85;21041;-78
2022/09/01 10:26:37;;;;;;;9.10;5.00;;;;;;;25.25;61.26;98800.61;1655923;85;21019;-78
2022/09/01 10:29:20;;;;;;;11.53;5.03;;;;;;;25.25;60.96;98794.83;1655626;85;21101;-78
2022/09/01 10:31:47;;;;;;;10.25;5.22;;;;;;;25.16;60.48;98793.78;1654246;85;21556;-78
2022/09/01 10:34:18;;;;;;;9.38;5.15;;;;;;;25.09;60.13;98798.46;1654812;85;21021;-78
2022/09/01 10:36:47;;;;;;;11.68;5.53;;;;;;;25.09;61.09;98800.66;1650561;86;21029;-78
2022/09/01 10:39:18;;;;;;;8.10;4.83;;;;;;;25.11;61.09;98800.49;1659580;85;21039;-76
2022/09/01 10:42:06;;;;;;;11.65;5.00;;;;;;;25.13;61.07;98800.73;1664095;85;20997;-78
2022/09/01 10:44:34;;;;;;;10.78;5.47;;;;;;;25.08;59.16;98800.29;1635841;85;21060;-78
2022/09/01 10:47:12;;;;;;;7.92;4.67;;;;;;;25.07;60.37;98795.97;1627655;86;21084;-77
2022/09/01 10:49:50;;;;;;;9.93;5.62;;;;;;;25.04;60.09;98788.75;1666272;85;21037;-78
2022/09/01 10:52:45;;;;;;;12.47;5.67;;;;;;;25.09;60.75;98784.70;1657855;85;20954;-77
2022/09/01 10:55:38;;;;;;;10.82;5.50;;;;;;;25.02;60.63;98779.57;1657262;84;21041;-78
2022/09/01 10:58:37;;;;;;;7.47;5.12;;;;;;;24.92;59.92;98773.41;1654566;85;21012;-77
2022/09/01 11:01:03;;;;;;;9.03;5.08;;;;;;;24.86;60.66;98764.16;1616047;85;21071;-78
2022/09/01 11:03:40;;;;;;;9.33;5.58;;;;;;;24.74;60.76;98760.77;1647278;85;21029;-78
2022/09/01 11:06:08;;;;;;;8.25;5.40;;;;;;;24.67;60.67;98757.00;1664510;85;21143;-79
2022/09/01 11:08:50;;;;;;;11.28;7.58;;;;;;;24.68;60.96;98754.67;1647493;84;21058;-78
2022/09/01 11:11:46;;;;;;;11.05;5.67;;;;;;;24.65;60.85;98757.63;1668805;84;21084;-78
2022/09/01 11:14:21;;;;;;;8.63;5.80;;;;;;;24.64;61.16;98757.25;1666770;84;20965;-78
2022/09/01 11:17:19;;;;;;;9.85;5.80;;;;;;;24.62;60.80;98753.89;1697642;82;21535;-79
2022/09/01 11:20:07;;;;;;;10.98;5.35;;;;;;;24.67;60.98;98748.16;1689907;83;21035;-79
2022/09/01 11:22:40;;;;;;;10.48;5.60;;;;;;;24.65;61.49;98747.45;1709077;82;21567;-79
2022/09/01 11:25:42;;;;;;;15.28;5.97;;;;;;;24.79;62.00;98743.10;1710182;82;21010;-79
2022/09/01 11:28:30;;;;;;;10.43;5.20;;;;;;;24.84;61.81;98747.50;1669169;84;21055;-77
2022/09/01 11:31:08;;;;;;;9.90;5.47;;;;;;;24.93;61.03;98755.98;1656813;84;21051;-78
2022/09/01 11:34:04;;;;;;;11.25;5.28;;;;;;;25.03;60.81;98748.02;1659963;84;21077;-79
2022/09/01 11:36:51;;;;;;;12.68;5.53;;;;;;;25.12;61.23;98751.66;1664229;85;21016;-77
2022/09/01 11:39:32;;;;;;;9.68;5.37;;;;;;;25.16;60.20;98753.05;1664095;84;21054;-79
2022/09/01 11:42:22;;;;;;;10.95;5.55;;;;;;;25.04;60.63;98756.34;1661468;85;21049;-79
2022/09/01 11:45:03;;;;;;;9.58;5.10;;;;;;;24.84;60.77;98755.97;1662398;85;21076;-79
2022/09/01 11:47:36;;;;;;;11.57;5.72;;;;;;;24.74;61.29;98756.78;1638905;86;22391;-79
2022/09/01 11:50:08;;;;;;;10.27;6.07;;;;;;;24.70;61.56;98758.53;1660253;86;21049;-78
2022/09/01 11:52:38;;;;;;;11.67;6.00;;;;;;;24.66;61.20;98749.16;1654888;85;21553;-78
2022/09/01 11:55:07;;;;;;;11.35;5.90;;;;;;;24.62;61.46;98753.89;1661448;85;21076;-79
2022/09/01 11:57:39;;;;;;;12.07;6.05;;;;;;;24.56;61.79;98761.09;1650805;85;21362;-78
2022/09/01 12:00:11;;;;;;;13.15;6.03;;;;;;;24.48;61.99;98760.39;1659867;85;21679;-78